Time;durP1;ratioP1;P1;durP2;ratioP2;P2;SDS_P1;SDS_P2;PMS_P1;PMS_P2;Temp;Humidity;BMP_temperature;BMP_pressure;BME280_temperature;BME280_humidity;BME280_pressure;Samples;Min_cycle;Max_cycle;Signal;HPM_P1;HPM_P2
2021/04/02 00:01:18;;;;;;;3.17;1.80;;;;;;;;;;5013392;28;20490;-84
2021/04/02 00:03:44;;;;;;;4.63;1.88;;;;;;;;;;5026419;28;20891;-83
2021/04/02 00:06:11;;;;;;;2.90;1.80;;;;;;;;;;5032881;28;20429;-81
2021/04/02 00:08:37;;;;;;;5.13;1.80;;;;;;;;;;5022805;28;20765;-85
2021/04/02 00:11:05;;;;;;;4.60;1.90;;;;;;;;;;5013210;28;20525;-83
2021/04/02 00:13:34;;;;;;;4.72;1.98;;;;;;;;;;5023761;28;20390;-82
2021/04/02 00:16:01;;;;;;;3.45;1.80;;;;;;;;;;5031413;28;20736;-82
2021/04/02 00:18:27;;;;;;;2.83;1.40;;;;;;;;;;5020892;28;20394;-84
2021/04/02 00:20:55;;;;;;;3.00;1.88;;;;;;;;;;5014281;28;20738;-81
2021/04/02 00:23:22;;;;;;;3.00;2.00;;;;;;;;;;5021262;28;20485;-85
2021/04/02 00:25:48;;;;;;;3.92;1.80;;;;;;;;;;5032585;28;20385;-82
2021/04/02 00:28:14;;;;;;;4.18;2.00;;;;;;;;;;5028814;28;20519;-84
2021/04/02 00:30:42;;;;;;;3.55;2.03;;;;;;;;;;5032384;28;20424;-84
2021/04/02 00:33:08;;;;;;;3.07;2.10;;;;;;;;;;5025666;28;20886;-81
2021/04/02 00:35:36;;;;;;;4.80;2.10;;;;;;;;;;5013141;28;20382;-84
2021/04/02 00:38:03;;;;;;;3.70;2.10;;;;;;;;;;5017243;28;20381;-84
2021/04/02 00:40:30;;;;;;;5.13;2.17;;;;;;;;;;5031075;28;20385;-81
2021/04/02 00:42:56;;;;;;;3.22;1.95;;;;;;;;;;5030208;28;20449;-83
2021/04/02 00:45:22;;;;;;;5.10;2.50;;;;;;;;;;5031987;28;20474;-84
2021/04/02 00:47:52;;;;;;;3.07;2.00;;;;;;;;;;5025429;28;20475;-84
2021/04/02 00:50:21;;;;;;;3.25;2.30;;;;;;;;;;5011929;28;20737;-84
2021/04/02 00:52:47;;;;;;;4.00;2.20;;;;;;;;;;5014506;28;20495;-84
2021/04/02 00:55:13;;;;;;;5.47;2.93;;;;;;;;;;5022591;28;20916;-82
2021/04/02 00:57:39;;;;;;;6.15;2.65;;;;;;;;;;5012608;28;20387;-81
2021/04/02 01:00:07;;;;;;;5.55;3.20;;;;;;;;;;5031602;28;20401;-84
2021/04/02 01:02:33;;;;;;;5.53;2.78;;;;;;;;;;5029623;28;20984;-85
2021/04/02 01:05:00;;;;;;;4.63;2.83;;;;;;;;;;5011557;28;20410;-82
2021/04/02 01:07:26;;;;;;;4.85;2.90;;;;;;;;;;5012289;28;20414;-85
2021/04/02 01:09:52;;;;;;;5.25;3.42;;;;;;;;;;5012135;28;20383;-84
2021/04/02 01:12:18;;;;;;;5.85;3.35;;;;;;;;;;5021427;28;20385;-83
2021/04/02 01:14:44;;;;;;;5.27;3.07;;;;;;;;;;5031317;28;20870;-82
2021/04/02 01:17:10;;;;;;;3.83;2.92;;;;;;;;;;5021367;28;20387;-82
2021/04/02 01:19:42;;;;;;;5.68;3.13;;;;;;;;;;5011176;28;20371;-83
2021/04/02 01:22:28;;;;;;;7.25;3.10;;;;;;;;;;5020370;28;20403;-82
2021/04/02 01:25:12;;;;;;;5.03;3.17;;;;;;;;;;5030726;28;20851;-81
2021/04/02 01:27:57;;;;;;;5.78;3.30;;;;;;;;;;5015635;28;20470;-82
2021/04/02 01:30:24;;;;;;;4.03;3.00;;;;;;;;;;5010120;28;20383;-84
2021/04/02 01:32:52;;;;;;;5.05;2.88;;;;;;;;;;5026057;28;20794;-81
2021/04/02 01:35:27;;;;;;;5.68;3.42;;;;;;;;;;5031427;28;20369;-82
2021/04/02 01:37:55;;;;;;;5.55;3.72;;;;;;;;;;5014465;28;20391;-83
2021/04/02 01:40:22;;;;;;;4.88;3.28;;;;;;;;;;5029836;28;20386;-82
2021/04/02 01:42:48;;;;;;;4.75;3.63;;;;;;;;;;5017325;28;20441;-83
2021/04/02 01:45:16;;;;;;;4.88;3.45;;;;;;;;;;5011475;28;20386;-83
2021/04/02 01:47:42;;;;;;;8.65;3.85;;;;;;;;;;5022397;28;20388;-83
2021/04/02 01:50:11;;;;;;;7.17;3.70;;;;;;;;;;5029193;28;20374;-84
2021/04/02 01:52:37;;;;;;;5.45;3.65;;;;;;;;;;5023825;28;20397;-83
2021/04/02 01:55:03;;;;;;;4.90;3.53;;;;;;;;;;5030578;28;20377;-84
2021/04/02 01:57:30;;;;;;;5.80;3.90;;;;;;;;;;5019845;28;20977;-81
2021/04/02 01:59:56;;;;;;;5.57;3.75;;;;;;;;;;5020180;28;21202;-82
2021/04/02 02:02:22;;;;;;;4.65;3.60;;;;;;;;;;5010775;28;20517;-86
2021/04/02 02:04:49;;;;;;;6.43;3.90;;;;;;;;;;5032174;28;20394;-83
2021/04/02 02:07:15;;;;;;;4.63;3.65;;;;;;;;;;5021493;28;21080;-84
2021/04/02 02:09:42;;;;;;;5.22;3.42;;;;;;;;;;5015237;28;20798;-83
2021/04/02 02:12:10;;;;;;;5.07;3.30;;;;;;;;;;5022228;28;20388;-79
2021/04/02 02:14:38;;;;;;;5.57;3.53;;;;;;;;;;5029600;28;20370;-84
2021/04/02 02:17:06;;;;;;;4.80;3.45;;;;;;;;;;5020878;28;20796;-81
2021/04/02 02:19:34;;;;;;;6.80;4.00;;;;;;;;;;5010448;28;20371;-84
2021/04/02 02:22:03;;;;;;;5.70;3.90;;;;;;;;;;5018159;28;20385;-82
2021/04/02 02:24:29;;;;;;;6.28;3.92;;;;;;;;;;5028412;28;20437;-84
2021/04/02 02:26:56;;;;;;;5.32;3.88;;;;;;;;;;5020753;28;20414;-84
2021/04/02 02:29:22;;;;;;;7.20;3.92;;;;;;;;;;5010054;28;20379;-83
2021/04/02 02:31:48;;;;;;;6.72;4.43;;;;;;;;;;5015115;28;20385;-84
2021/04/02 02:34:14;;;;;;;7.60;4.10;;;;;;;;;;5029953;28;21069;-84
2021/04/02 02:36:40;;;;;;;6.55;4.18;;;;;;;;;;5024551;28;20382;-82
2021/04/02 02:39:10;;;;;;;5.70;3.90;;;;;;;;;;5008161;28;20788;-86
2021/04/02 02:41:36;;;;;;;5.28;4.15;;;;;;;;;;5014485;28;20381;-84
2021/04/02 02:44:03;;;;;;;5.47;3.95;;;;;;;;;;5029921;28;20755;-83
2021/04/02 02:46:29;;;;;;;6.55;4.63;;;;;;;;;;5025048;28;20577;-84
2021/04/02 02:48:58;;;;;;;6.87;4.33;;;;;;;;;;5009579;28;20744;-82
2021/04/02 02:51:24;;;;;;;6.93;4.32;;;;;;;;;;5012385;28;20404;-83
2021/04/02 02:53:50;;;;;;;5.20;4.43;;;;;;;;;;5028909;28;20373;-83
2021/04/02 02:56:17;;;;;;;5.70;4.30;;;;;;;;;;5010625;28;20372;-81
2021/04/02 02:58:43;;;;;;;4.68;4.18;;;;;;;;;;5010214;28;20403;-82
2021/04/02 03:01:09;;;;;;;6.07;4.43;;;;;;;;;;5027240;28;20500;-84
2021/04/02 03:03:35;;;;;;;8.63;4.78;;;;;;;;;;5028686;28;20424;-85
2021/04/02 03:06:01;;;;;;;6.72;4.60;;;;;;;;;;5012855;28;20918;-84
2021/04/02 03:08:29;;;;;;;5.63;4.50;;;;;;;;;;5009594;28;20387;-83
2021/04/02 03:10:55;;;;;;;7.57;4.85;;;;;;;;;;5025168;28;20405;-83
2021/04/02 03:13:23;;;;;;;6.95;4.45;;;;;;;;;;5029789;28;20421;-84
2021/04/02 03:15:50;;;;;;;6.30;4.60;;;;;;;;;;5029531;28;20417;-81
2021/04/02 03:18:19;;;;;;;7.60;5.13;;;;;;;;;;5029903;28;20400;-81
2021/04/02 03:20:46;;;;;;;7.45;5.20;;;;;;;;;;5016805;28;20516;-83
2021/04/02 03:23:12;;;;;;;6.20;4.40;;;;;;;;;;5010674;28;20493;-83
2021/04/02 03:25:39;;;;;;;7.78;5.07;;;;;;;;;;5024992;28;20393;-82
2021/04/02 03:28:06;;;;;;;7.53;5.17;;;;;;;;;;5036294;28;20396;-81
2021/04/02 03:30:32;;;;;;;8.07;5.00;;;;;;;;;;5023777;28;20387;-84
2021/04/02 03:33:03;;;;;;;7.63;5.33;;;;;;;;;;5016426;28;20375;-84
2021/04/02 03:35:29;;;;;;;6.37;5.00;;;;;;;;;;5019918;28;20389;-82
2021/04/02 03:37:56;;;;;;;6.60;5.28;;;;;;;;;;5035024;28;20945;-84
2021/04/02 03:40:23;;;;;;;5.97;5.15;;;;;;;;;;5026528;28;20397;-84
2021/04/02 03:42:52;;;;;;;5.47;4.93;;;;;;;;;;5015492;28;20407;-81
2021/04/02 03:45:20;;;;;;;6.45;5.20;;;;;;;;;;5023263;28;20435;-83
2021/04/02 03:47:48;;;;;;;5.72;4.97;;;;;;;;;;5033690;28;20389;-83
2021/04/02 03:50:15;;;;;;;5.28;4.72;;;;;;;;;;5027082;28;20394;-81
2021/04/02 03:52:45;;;;;;;7.80;5.05;;;;;;;;;;5014355;28;20740;-82
2021/04/02 03:55:14;;;;;;;7.82;5.25;;;;;;;;;;5031516;28;20407;-82
2021/04/02 03:57:42;;;;;;;9.00;5.95;;;;;;;;;;5035542;28;20804;-83
2021/04/02 04:00:22;;;;;;;9.73;6.87;;;;;;;;;;5018692;28;20431;-83
2021/04/02 04:02:49;;;;;;;10.30;6.95;;;;;;;;;;5015480;28;20439;-83
2021/04/02 04:05:16;;;;;;;7.90;6.30;;;;;;;;;;5030385;28;20446;-82
2021/04/02 04:07:43;;;;;;;9.73;6.60;;;;;;;;;;5035072;28;20385;-83
2021/04/02 04:10:12;;;;;;;7.38;6.25;;;;;;;;;;5018499;28;20390;-81
2021/04/02 04:12:38;;;;;;;7.07;4.57;;;;;;;;;;5015527;28;20377;-82
2021/04/02 04:15:05;;;;;;;7.00;5.00;;;;;;;;;;5028608;28;20393;-81
2021/04/02 04:17:32;;;;;;;7.43;5.70;;;;;;;;;;5033261;28;20454;-83
2021/04/02 04:19:58;;;;;;;9.15;6.70;;;;;;;;;;5020409;28;20414;-85
2021/04/02 04:22:24;;;;;;;12.18;7.72;;;;;;;;;;5023426;28;20440;-82
2021/04/02 04:24:50;;;;;;;7.68;6.30;;;;;;;;;;5035087;28;20377;-82
2021/04/02 04:27:17;;;;;;;13.57;9.30;;;;;;;;;;5026373;28;20395;-83
2021/04/02 04:29:46;;;;;;;13.23;8.85;;;;;;;;;;5014163;28;20924;-82
2021/04/02 04:32:16;;;;;;;9.63;7.68;;;;;;;;;;5020753;28;20393;-85
2021/04/02 04:34:43;;;;;;;8.25;7.13;;;;;;;;;;5034756;28;20392;-82
2021/04/02 04:37:10;;;;;;;8.25;6.18;;;;;;;;;;5024616;28;20730;-85
2021/04/02 04:39:36;;;;;;;10.60;7.23;;;;;;;;;;5010790;28;20387;-83
2021/04/02 04:42:03;;;;;;;12.13;9.18;;;;;;;;;;5015903;28;20385;-83
2021/04/02 04:44:29;;;;;;;12.55;9.32;;;;;;;;;;5031778;28;20429;-84
2021/04/02 04:46:56;;;;;;;9.02;7.03;;;;;;;;;;5027997;28;20406;-85
2021/04/02 04:49:22;;;;;;;13.52;8.80;;;;;;;;;;5022564;28;20382;-82
2021/04/02 04:51:49;;;;;;;12.80;8.57;;;;;;;;;;5030081;28;20723;-82
2021/04/02 04:54:17;;;;;;;9.27;7.60;;;;;;;;;;5010490;28;20410;-83
2021/04/02 04:56:43;;;;;;;7.95;6.93;;;;;;;;;;5010612;28;20429;-82
2021/04/02 04:59:10;;;;;;;11.32;8.40;;;;;;;;;;5030134;28;21020;-82
2021/04/02 05:01:44;;;;;;;11.80;7.97;;;;;;;;;;5032087;28;20365;-83
2021/04/02 05:04:11;;;;;;;7.80;7.00;;;;;;;;;;5031302;28;20405;-82
2021/04/02 05:06:38;;;;;;;10.07;7.07;;;;;;;;;;5031465;28;20480;-83
2021/04/02 05:09:04;;;;;;;7.70;6.87;;;;;;;;;;5011902;28;20383;-82
2021/04/02 05:11:32;;;;;;;8.57;7.30;;;;;;;;;;5011481;28;20390;-81
2021/04/02 05:13:58;;;;;;;10.20;7.90;;;;;;;;;;5027090;28;20522;-84
2021/04/02 05:16:25;;;;;;;11.63;7.88;;;;;;;;;;5034049;28;20385;-81
2021/04/02 05:18:54;;;;;;;9.65;7.55;;;;;;;;;;5017318;28;20383;-82
2021/04/02 05:21:20;;;;;;;12.23;8.77;;;;;;;;;;5013125;28;20419;-83
2021/04/02 05:23:46;;;;;;;14.68;10.02;;;;;;;;;;5029381;28;20467;-81
2021/04/02 05:26:13;;;;;;;15.63;11.20;;;;;;;;;;5031248;28;20409;-84
2021/04/02 05:28:39;;;;;;;17.77;12.27;;;;;;;;;;5028086;28;20782;-84
2021/04/02 05:31:06;;;;;;;21.15;12.95;;;;;;;;;;5029831;28;20377;-81
2021/04/02 05:33:32;;;;;;;17.75;12.90;;;;;;;;;;5017249;28;20391;-81
2021/04/02 05:35:58;;;;;;;15.88;12.70;;;;;;;;;;5011594;28;20371;-82
2021/04/02 05:38:24;;;;;;;60.17;15.73;;;;;;;;;;5025362;28;20917;-84
2021/04/02 05:40:50;;;;;;;41.80;15.43;;;;;;;;;;5030746;28;20374;-83
2021/04/02 05:43:20;;;;;;;26.25;14.95;;;;;;;;;;5015276;28;20429;-81
2021/04/02 05:45:47;;;;;;;35.10;15.18;;;;;;;;;;5012008;28;20474;-81
2021/04/02 05:48:15;;;;;;;22.20;14.63;;;;;;;;;;5020215;28;20831;-82
2021/04/02 05:50:41;;;;;;;26.15;14.63;;;;;;;;;;5030924;28;20370;-81
2021/04/02 05:53:11;;;;;;;31.63;14.68;;;;;;;;;;5017390;28;20940;-82
2021/04/02 05:55:38;;;;;;;26.38;14.43;;;;;;;;;;5030761;28;20548;-84
2021/04/02 05:58:05;;;;;;;34.50;16.63;;;;;;;;;;5018994;28;20391;-82
2021/04/02 06:00:31;;;;;;;21.33;15.15;;;;;;;;;;5009796;28;20383;-83
2021/04/02 06:02:58;;;;;;;46.67;16.45;;;;;;;;;;5020221;28;20551;-83
2021/04/02 06:05:24;;;;;;;29.60;15.70;;;;;;;;;;5032568;28;20467;-85
2021/04/02 06:07:51;;;;;;;33.00;16.52;;;;;;;;;;5021014;28;20406;-86
2021/04/02 06:10:17;;;;;;;24.13;16.77;;;;;;;;;;5010676;28;20754;-82
2021/04/02 06:12:43;;;;;;;20.17;15.80;;;;;;;;;;5019287;28;20377;-83
2021/04/02 06:15:10;;;;;;;17.08;14.55;;;;;;;;;;5030673;28;20381;-86
2021/04/02 06:17:54;;;;;;;19.40;14.30;;;;;;;;;;5023598;28;20379;-82
2021/04/02 06:20:24;;;;;;;15.52;12.90;;;;;;;;;;5011220;28;20403;-82
2021/04/02 06:23:01;;;;;;;22.52;14.27;;;;;;;;;;5019906;28;20970;-82
2021/04/02 06:25:27;;;;;;;21.33;14.20;;;;;;;;;;5028778;28;20431;-83
2021/04/02 06:27:54;;;;;;;18.30;13.38;;;;;;;;;;5019211;28;20389;-83
2021/04/02 06:30:22;;;;;;;16.87;13.53;;;;;;;;;;5011100;28;20473;-83
2021/04/02 06:32:51;;;;;;;14.48;12.98;;;;;;;;;;5010971;28;20390;-84
2021/04/02 06:35:18;;;;;;;14.47;13.00;;;;;;;;;;5029412;28;20504;-82
2021/04/02 06:37:45;;;;;;;18.35;13.25;;;;;;;;;;5030557;28;20384;-82
2021/04/02 06:40:14;;;;;;;17.33;13.43;;;;;;;;;;5011992;28;20431;-84
2021/04/02 06:42:43;;;;;;;17.65;13.70;;;;;;;;;;5010930;28;20908;-85
2021/04/02 06:45:10;;;;;;;15.60;13.40;;;;;;;;;;5026931;28;20381;-83
2021/04/02 06:47:36;;;;;;;15.05;12.93;;;;;;;;;;5029114;28;20481;-84
2021/04/02 06:50:15;;;;;;;15.13;13.35;;;;;;;;;;5014811;28;20418;-83
2021/04/02 06:52:41;;;;;;;16.65;14.60;;;;;;;;;;5010315;28;20385;-82
2021/04/02 06:55:09;;;;;;;14.20;12.70;;;;;;;;;;5009957;28;20430;-83
2021/04/02 06:57:35;;;;;;;14.13;12.30;;;;;;;;;;5010216;28;20378;-83
2021/04/02 07:00:01;;;;;;;14.20;12.70;;;;;;;;;;5024624;28;20527;-82
2021/04/02 07:02:28;;;;;;;15.17;12.70;;;;;;;;;;5025648;28;20482;-84
2021/04/02 07:04:54;;;;;;;13.77;12.00;;;;;;;;;;5010386;28;20382;-83
2021/04/02 07:07:20;;;;;;;13.55;12.15;;;;;;;;;;5010999;28;20403;-82
2021/04/02 07:09:47;;;;;;;12.68;11.30;;;;;;;;;;5030336;28;20412;-82
2021/04/02 07:12:13;;;;;;;13.93;12.02;;;;;;;;;;5029467;28;20369;-84
2021/04/02 07:14:40;;;;;;;12.52;11.32;;;;;;;;;;5010415;28;20379;-83
2021/04/02 07:17:06;;;;;;;11.90;10.70;;;;;;;;;;5011170;28;20386;-82
2021/04/02 07:19:33;;;;;;;12.73;11.43;;;;;;;;;;5009588;28;20390;-82
2021/04/02 07:21:59;;;;;;;11.65;10.30;;;;;;;;;;5025731;28;21543;-82
2021/04/02 07:24:26;;;;;;;11.10;10.00;;;;;;;;;;5029942;28;20533;-84
2021/04/02 07:26:52;;;;;;;12.57;11.27;;;;;;;;;;5013382;28;20449;-86
2021/04/02 07:29:19;;;;;;;12.07;10.95;;;;;;;;;;5010195;28;20379;-84
2021/04/02 07:31:46;;;;;;;11.75;10.65;;;;;;;;;;5023719;28;20390;-84
2021/04/02 07:34:13;;;;;;;11.20;10.10;;;;;;;;;;5030425;28;20389;-84
2021/04/02 07:36:40;;;;;;;11.05;9.98;;;;;;;;;;5014584;28;20493;-83
2021/04/02 07:39:07;;;;;;;9.30;8.40;;;;;;;;;;5014817;28;20391;-87
2021/04/02 07:41:40;;;;;;;9.57;8.53;;;;;;;;;;5029070;28;20387;-84
2021/04/02 07:44:10;;;;;;;9.40;8.50;;;;;;;;;;5030333;28;20405;-88
2021/04/02 07:46:36;;;;;;;9.85;8.88;;;;;;;;;;5016534;28;20402;-84
2021/04/02 07:49:05;;;;;;;9.85;8.85;;;;;;;;;;5022693;28;20803;-83
2021/04/02 07:51:50;;;;;;;10.43;9.45;;;;;;;;;;5010565;28;20872;-85
2021/04/02 07:54:28;;;;;;;9.32;8.52;;;;;;;;;;5019513;28;20950;-85
2021/04/02 07:57:05;;;;;;;10.65;9.65;;;;;;;;;;5023309;28;20885;-82
2021/04/02 07:59:37;;;;;;;10.55;9.55;;;;;;;;;;5020001;28;20385;-86
2021/04/02 08:02:04;;;;;;;11.63;10.02;;;;;;;;;;5020318;28;20431;-86
2021/04/02 08:04:36;;;;;;;10.32;9.30;;;;;;;;;;5018694;28;20417;-88
2021/04/02 08:07:02;;;;;;;10.55;9.55;;;;;;;;;;5017631;28;20391;-89
2021/04/02 08:09:28;;;;;;;12.30;9.95;;;;;;;;;;5014759;28;20870;-86
2021/04/02 08:11:57;;;;;;;10.30;9.30;;;;;;;;;;5028204;28;20439;-83
2021/04/02 08:14:34;;;;;;;9.73;8.82;;;;;;;;;;5026255;28;20479;-84
2021/04/02 08:17:01;;;;;;;10.23;8.98;;;;;;;;;;5024840;28;20385;-84
2021/04/02 08:19:31;;;;;;;11.00;9.80;;;;;;;;;;5023531;28;20890;-83
2021/04/02 08:22:02;;;;;;;9.20;8.30;;;;;;;;;;5014332;28;20474;-84
2021/04/02 08:24:35;;;;;;;9.70;8.70;;;;;;;;;;5022012;28;20517;-85
2021/04/02 08:27:01;;;;;;;8.50;7.60;;;;;;;;;;5028286;28;20429;-83
2021/04/02 08:29:28;;;;;;;7.00;6.20;;;;;;;;;;5029391;28;20413;-84
2021/04/02 08:31:56;;;;;;;6.18;5.57;;;;;;;;;;5034016;28;20444;-83
2021/04/02 08:34:24;;;;;;;6.13;5.53;;;;;;;;;;5034526;28;20401;-84
2021/04/02 08:36:51;;;;;;;6.18;5.68;;;;;;;;;;5034016;28;21359;-84
2021/04/02 08:39:18;;;;;;;6.20;5.55;;;;;;;;;;5029665;28;20964;-83
2021/04/02 08:41:45;;;;;;;6.50;5.78;;;;;;;;;;5030618;28;20393;-92
2021/04/02 08:44:11;;;;;;;6.70;6.10;;;;;;;;;;5029924;28;20467;-83
2021/04/02 08:46:45;;;;;;;6.13;5.63;;;;;;;;;;5027294;28;20393;-84
2021/04/02 08:49:12;;;;;;;6.13;5.53;;;;;;;;;;5032189;28;20377;-84
2021/04/02 08:51:39;;;;;;;6.43;5.78;;;;;;;;;;5017286;28;20441;-84
2021/04/02 08:54:05;;;;;;;6.20;5.60;;;;;;;;;;5017285;28;20381;-89
2021/04/02 08:56:32;;;;;;;6.40;5.50;;;;;;;;;;5025393;28;20989;-84
2021/04/02 08:58:59;;;;;;;6.35;5.72;;;;;;;;;;5014367;28;20722;-85
2021/04/02 09:01:25;;;;;;;6.90;5.80;;;;;;;;;;5013298;28;20383;-84
2021/04/02 09:03:52;;;;;;;6.85;6.15;;;;;;;;;;5031762;28;20408;-86
2021/04/02 09:06:19;;;;;;;8.02;7.22;;;;;;;;;;5029483;28;20891;-83
2021/04/02 09:08:45;;;;;;;6.95;6.25;;;;;;;;;;5031357;28;20393;-85
2021/04/02 09:11:12;;;;;;;7.55;6.85;;;;;;;;;;5034389;28;20374;-87
2021/04/02 09:13:39;;;;;;;5.87;5.33;;;9.10;99.90;;;;;;5027967;28;20381;-87
2021/04/02 09:16:12;;;;;;;7.22;6.53;;;8.90;99.90;;;;;;5028966;28;20405;-86
2021/04/02 09:18:53;;;;;;;7.63;6.70;;;9.30;99.90;;;;;;5030047;28;20485;-86
2021/04/02 09:21:20;;;;;;;7.93;7.13;;;9.30;99.90;;;;;;5030361;28;20898;-84
2021/04/02 09:23:48;;;;;;;7.78;6.10;;;9.30;99.90;;;;;;5027867;28;20818;-83
2021/04/02 09:26:13;;;;;;;6.60;5.90;;;9.60;99.90;;;;;;5031954;28;20790;-85
2021/04/02 09:28:39;;;;;;;8.05;6.70;;;9.80;99.90;;;;;;5027092;28;20477;-85
2021/04/02 09:31:28;;;;;;;9.40;7.10;;;9.80;99.90;;;;;;5014672;28;20399;-85
2021/04/02 09:33:56;;;;;;;7.40;6.45;;;9.70;99.90;;;;;;5029101;28;20377;-86
2021/04/02 09:36:23;;;;;;;8.20;7.40;;;9.90;99.90;;;;;;5027092;28;20452;-83
2021/04/02 09:38:49;;;;;;;8.18;7.35;;;9.90;99.90;;;;;;5028793;28;20382;-85
2021/04/02 09:41:22;;;;;;;9.10;7.97;;;10.10;99.90;;;;;;5022812;28;20412;-86
2021/04/02 09:43:53;;;;;;;8.15;7.40;;;10.60;99.90;;;;;;5013404;28;20419;-86
2021/04/02 09:46:33;;;;;;;8.68;7.55;;;10.80;99.90;;;;;;5028024;28;20382;-83
2021/04/02 09:49:08;;;;;;;7.53;6.70;;;11.30;99.90;;;;;;5017492;28;20442;-85
2021/04/02 09:51:36;;;;;;;6.90;6.20;;;11.60;99.90;;;;;;5034346;28;20401;-85
2021/04/02 09:54:02;;;;;;;7.53;6.20;;;11.60;99.90;;;;;;5017780;28;20392;-82
2021/04/02 09:56:28;;;;;;;9.10;6.65;;;11.50;99.90;;;;;;5031114;28;20382;-84
2021/04/02 09:58:53;;;;;;;6.97;6.00;;;11.40;99.90;;;;;;5028425;28;20381;-84
2021/04/02 10:01:19;;;;;;;6.50;5.90;;;11.50;99.90;;;;;;5020139;28;20390;-83
2021/04/02 10:03:45;;;;;;;6.80;6.10;;;11.70;99.90;;;;;;5011314;28;20434;-86
2021/04/02 10:06:10;;;;;;;8.05;5.88;;;12.10;99.90;;;;;;5019118;28;20455;-82
2021/04/02 10:08:37;;;;;;;6.53;5.40;;;12.00;99.90;;;;;;5029802;28;20401;-85
2021/04/02 10:11:03;;;;;;;5.47;4.53;;;12.00;99.90;;;;;;5012906;28;20510;-84
2021/04/02 10:13:28;;;;;;;5.17;4.50;;;11.80;99.90;;;;;;5011661;28;20478;-84
2021/04/02 10:15:54;;;;;;;6.03;4.72;;;11.70;99.90;;;;;;5010310;28;20399;-85
2021/04/02 10:18:20;;;;;;;4.87;4.10;;;11.50;99.90;;;;;;5008859;28;20375;-84
2021/04/02 10:20:46;;;;;;;5.95;4.35;;;11.30;99.90;;;;;;5009953;28;20387;-81
2021/04/02 10:23:12;;;;;;;5.27;4.10;;;11.20;99.90;;;;;;5010707;28;20426;-83
2021/04/02 10:25:37;;;;;;;3.93;3.30;;;11.10;99.90;;;;;;5010729;28;20884;-85
2021/04/02 10:28:03;;;;;;;4.72;2.80;;;11.20;99.90;;;;;;5009294;28;20959;-84
2021/04/02 10:30:29;;;;;;;4.57;2.53;;;11.40;99.90;;;;;;5010969;28;20387;-83
2021/04/02 10:32:55;;;;;;;5.70;3.30;;;11.60;99.90;;;;;;5011255;28;20375;-84
2021/04/02 10:35:20;;;;;;;2.97;2.38;;;11.60;99.90;;;;;;5009127;28;20534;-85
2021/04/02 10:37:46;;;;;;;5.32;3.42;;;11.30;99.90;;;;;;5009300;28;20490;-85
2021/04/02 10:40:12;;;;;;;3.70;2.45;;;11.20;99.90;;;;;;5011645;28;20466;-82
2021/04/02 10:42:38;;;;;;;3.30;2.10;;;11.30;99.90;;;;;;5009573;28;20470;-84
2021/04/02 10:45:05;;;;;;;3.97;2.53;;;11.60;99.90;;;;;;5012274;28;20483;-85
2021/04/02 10:47:30;;;;;;;2.15;1.92;;;11.80;99.90;;;;;;5008955;28;20387;-83
2021/04/02 10:49:56;;;;;;;3.65;1.92;;;11.70;99.90;;;;;;5010010;28;20476;-83
2021/04/02 10:52:21;;;;;;;2.80;2.20;;;11.90;99.90;;;;;;5010885;28;20877;-82
2021/04/02 10:54:47;;;;;;;3.37;2.13;;;12.20;99.90;;;;;;5010127;28;20379;-84
2021/04/02 10:57:15;;;;;;;5.88;2.00;;;12.40;99.90;;;;;;5009754;28;20795;-85
2021/04/02 10:59:41;;;;;;;3.05;1.80;;;12.60;98.70;;;;;;5011232;28;20881;-85
2021/04/02 11:02:07;;;;;;;5.05;2.22;;;12.40;97.70;;;;;;5011313;28;20387;-82
2021/04/02 11:04:33;;;;;;;7.18;2.25;;;12.40;98.70;;;;;;5009986;28;20743;-83
2021/04/02 11:06:58;;;;;;;3.08;1.85;;;12.70;99.10;;;;;;5009236;28;20379;-86
2021/04/02 11:09:24;;;;;;;3.00;1.70;;;12.70;94.80;;;;;;5010540;28;20426;-83
2021/04/02 11:11:49;;;;;;;3.05;1.60;;;12.00;93.70;;;;;;5009453;28;20391;-83
2021/04/02 11:14:15;;;;;;;4.47;2.53;;;11.50;95.40;;;;;;5009914;28;20873;-83
2021/04/02 11:16:41;;;;;;;2.97;1.80;;;11.60;95.20;;;;;;5008801;28;20460;-83
2021/04/02 11:19:06;;;;;;;6.15;3.50;;;11.30;94.20;;;;;;5008145;28;20383;-84
2021/04/02 11:21:32;;;;;;;3.60;1.80;;;11.30;96.00;;;;;;5010160;28;20378;-82
2021/04/02 11:23:57;;;;;;;3.03;1.47;;;11.60;97.30;;;;;;5010692;28;20792;-81
2021/04/02 11:26:24;;;;;;;4.00;1.92;;;11.80;95.40;;;;;;5011888;28;20739;-83
2021/04/02 11:28:50;;;;;;;2.78;1.50;;;11.90;96.30;;;;;;5010006;28;20903;-83
2021/04/02 11:31:16;;;;;;;3.28;1.85;;;12.10;97.40;;;;;;5010121;28;20391;-82
2021/04/02 11:33:42;;;;;;;2.78;1.50;;;12.30;95.30;;;;;;5011789;28;20732;-82
2021/04/02 11:36:07;;;;;;;4.87;1.33;;;12.40;95.70;;;;;;5011403;28;20383;-83
2021/04/02 11:38:34;;;;;;;5.53;1.83;;;12.50;95.90;;;;;;5009946;28;20876;-83
2021/04/02 11:40:59;;;;;;;3.17;1.87;;;12.60;95.00;;;;;;5011412;28;20379;-83
2021/04/02 11:43:25;;;;;;;3.03;1.93;;;12.60;94.60;;;;;;5010335;28;20506;-81
2021/04/02 11:45:51;;;;;;;1.20;1.10;;;12.60;93.70;;;;;;5012641;28;20380;-85
2021/04/02 11:48:16;;;;;;;3.37;1.77;;;12.10;92.30;;;;;;5013704;28;20371;-85
2021/04/02 11:50:42;;;;;;;3.30;2.47;;;11.90;93.80;;;;;;5013615;28;21236;-82
2021/04/02 11:53:07;;;;;;;2.17;1.52;;;11.80;94.10;;;;;;5014647;28;20940;-82
2021/04/02 11:55:33;;;;;;;2.23;1.40;;;11.80;95.40;;;;;;5013671;28;20399;-83
2021/04/02 11:57:59;;;;;;;7.25;2.20;;;12.00;93.50;;;;;;5014442;28;20375;-83
2021/04/02 12:00:25;;;;;;;1.80;1.30;;;12.00;95.40;;;;;;5014722;28;20742;-83
2021/04/02 12:02:51;;;;;;;4.70;1.70;;;12.20;93.50;;;;;;5013545;28;20439;-85
2021/04/02 12:05:20;;;;;;;2.92;1.05;;;12.30;93.50;;;;;;5013258;28;20397;-84
2021/04/02 12:07:46;;;;;;;3.60;1.83;;;12.30;92.00;;;;;;5014406;28;21005;-84
2021/04/02 12:10:12;;;;;;;6.00;1.60;;;12.10;92.10;;;;;;5014421;28;20390;-83
2021/04/02 12:12:37;;;;;;;2.13;1.20;;;12.20;92.50;;;;;;5012547;28;20892;-82
2021/04/02 12:15:07;;;;;;;7.73;1.63;;;12.40;91.90;;;;;;5014021;28;20383;-85
2021/04/02 12:17:32;;;;;;;3.95;1.77;;;12.70;92.60;;;;;;5013483;28;20749;-82
2021/04/02 12:19:58;;;;;;;2.97;1.50;;;12.80;93.30;;;;;;5014371;28;20474;-84
2021/04/02 12:22:24;;;;;;;1.80;1.13;;;12.90;91.80;;;;;;5012198;28;20422;-83
2021/04/02 12:24:49;;;;;;;3.85;1.60;;;12.20;90.80;;;;;;5013653;28;20434;-83
2021/04/02 12:27:15;;;;;;;1.50;1.40;;;12.30;92.60;;;;;;5013317;28;20389;-81
2021/04/02 12:29:41;;;;;;;2.13;1.60;;;12.40;93.80;;;;;;5014061;28;20459;-83
2021/04/02 12:32:07;;;;;;;1.60;1.23;;;12.60;93.90;;;;;;5013511;28;20379;-82
2021/04/02 12:34:34;;;;;;;4.53;3.33;;;12.60;91.90;;;;;;5013701;28;20379;-83
2021/04/02 12:36:59;;;;;;;11.73;2.50;;;12.50;93.30;;;;;;5013023;28;20450;-84
2021/04/02 12:39:25;;;;;;;2.53;1.30;;;12.50;92.70;;;;;;5012478;28;20418;-82
2021/04/02 12:41:50;;;;;;;2.78;1.65;;;12.50;92.20;;;;;;5011614;28;20388;-83
2021/04/02 12:44:16;;;;;;;1.73;1.52;;;12.20;92.40;;;;;;5013826;28;20936;-84
2021/04/02 12:46:42;;;;;;;1.67;1.57;;;12.00;92.80;;;;;;5012551;28;20383;-83
2021/04/02 12:49:07;;;;;;;1.80;1.60;;;11.90;93.90;;;;;;5013884;28;20830;-83
2021/04/02 12:51:33;;;;;;;8.33;4.00;;;11.90;93.90;;;;;;5013539;28;20387;-81
2021/04/02 12:53:58;;;;;;;9.70;3.70;;;11.90;95.00;;;;;;5013608;28;20466;-83
2021/04/02 12:56:24;;;;;;;6.50;2.70;;;12.10;94.20;;;;;;5013417;28;20885;-82
2021/04/02 12:58:49;;;;;;;2.23;1.80;;;12.10;93.70;;;;;;5011687;28;20386;-83
2021/04/02 13:01:15;;;;;;;4.22;3.17;;;12.00;93.80;;;;;;5013110;28;20391;-81
2021/04/02 13:03:41;;;;;;;4.75;3.20;;;12.00;94.50;;;;;;5013639;28;20402;-84
2021/04/02 13:06:07;;;;;;;4.67;3.20;;;12.00;94.50;;;;;;5013737;28;20372;-84
2021/04/02 13:08:33;;;;;;;3.42;3.13;;;11.60;95.20;;;;;;5012988;28;20467;-84
2021/04/02 13:10:59;;;;;;;7.57;6.55;;;11.70;95.70;;;;;;5011600;28;20478;-82
2021/04/02 13:13:24;;;;;;;13.20;10.68;;;11.80;97.70;;;;;;5012068;28;20395;-84
2021/04/02 13:15:50;;;;;;;13.70;11.97;;;11.00;99.90;;;;;;5012748;28;20915;-83
2021/04/02 13:18:16;;;;;;;12.95;11.52;;;10.50;99.90;;;;;;5011951;28;20379;-81
2021/04/02 13:20:42;;;;;;;14.17;12.10;;;10.40;99.90;;;;;;5013701;28;20865;-81
2021/04/02 13:23:07;;;;;;;13.82;12.15;;;10.40;99.90;;;;;;5011955;28;20414;-83
2021/04/02 13:25:33;;;;;;;13.37;11.93;;;10.40;99.90;;;;;;5013363;28;20384;-82
2021/04/02 13:28:01;;;;;;;12.35;11.05;;;10.60;99.90;;;;;;5012927;28;20788;-82
2021/04/02 13:30:27;;;;;;;13.68;10.55;;;10.60;99.90;;;;;;5013129;28;20371;-82
2021/04/02 13:32:55;;;;;;;11.65;10.18;;;10.40;99.90;;;;;;5011445;28;20388;-82
2021/04/02 13:35:24;;;;;;;12.83;9.70;;;10.50;99.90;;;;;;5009842;28;20745;-81
2021/04/02 13:37:51;;;;;;;10.45;9.00;;;10.70;99.90;;;;;;5010642;28;20498;-82
2021/04/02 13:40:17;;;;;;;12.23;8.98;;;10.60;99.90;;;;;;5011062;28;20407;-83
2021/04/02 13:42:43;;;;;;;9.27;8.20;;;10.70;99.90;;;;;;5010068;28;20406;-82
2021/04/02 13:45:11;;;;;;;11.95;8.45;;;10.60;99.90;;;;;;5011143;28;20388;-84
2021/04/02 13:47:37;;;;;;;13.07;8.38;;;10.50;99.90;;;;;;5009888;28;20419;-83
2021/04/02 13:50:06;;;;;;;9.25;7.40;;;10.50;99.90;;;;;;5011277;28;20368;-81
2021/04/02 13:52:31;;;;;;;11.65;6.93;;;10.40;99.90;;;;;;5009237;28;20950;-82
2021/04/02 13:54:57;;;;;;;11.40;6.33;;;10.30;99.90;;;;;;5009454;28;20371;-84